createdAt,value
2022-10-12T00:03:53.661Z,11.1
2022-10-12T00:05:59.906Z,11
2022-10-12T00:08:02.276Z,11
2022-10-12T00:09:58.216Z,10.9
2022-10-12T00:15:53.647Z,10.9
2022-10-12T00:21:53.573Z,10.8
2022-10-12T00:24:00.082Z,10.7
2022-10-12T00:27:58.457Z,10.6
2022-10-12T00:29:59.564Z,10.6
2022-10-12T00:32:00.103Z,10.5
2022-10-12T00:33:53.690Z,10.5
2022-10-12T00:35:59.273Z,10.5
2022-10-12T00:38:00.059Z,10.6
2022-10-12T00:39:58.716Z,10.5
2022-10-12T00:45:53.662Z,10.4
2022-10-12T00:48:00.449Z,10.3
2022-10-12T00:51:56.129Z,10.4
2022-10-12T00:54:00.387Z,10.3
2022-10-12T00:55:59.941Z,10.3
2022-10-12T00:57:59.379Z,10.4
2022-10-12T01:01:58.642Z,10.3
2022-10-12T01:03:58.455Z,10.4
2022-10-12T01:07:59.573Z,10.5
2022-10-12T01:09:58.962Z,10.5
2022-10-12T01:11:56.594Z,10.5
2022-10-12T01:15:55.268Z,10.6
2022-10-12T01:17:59.930Z,10.6
2022-10-12T01:20:00.051Z,10.6
2022-10-12T01:21:53.679Z,10.6
2022-10-12T01:25:59.367Z,10.5
2022-10-12T01:27:57.011Z,10.5
2022-10-12T01:34:00.829Z,10.6
2022-10-12T01:36:00.122Z,10.6
2022-10-12T01:39:57.567Z,10.7
2022-10-12T01:44:00.017Z,10.7
2022-10-12T01:45:57.224Z,10.8
2022-10-12T01:47:59.453Z,10.7
2022-10-12T01:49:56.944Z,10.7
2022-10-12T01:51:57.488Z,10.7
2022-10-12T01:55:58.062Z,10.7
2022-10-12T01:57:57.470Z,10.7
2022-10-12T02:03:56.107Z,10.7
2022-10-12T02:09:56.606Z,10.9
2022-10-12T02:11:59.636Z,10.8
2022-10-12T02:15:59.710Z,10.8
2022-10-12T02:17:54.363Z,10.7
2022-10-12T02:21:53.683Z,10.8
2022-10-12T02:24:00.361Z,10.6
2022-10-12T02:25:59.592Z,10.7
2022-10-12T02:27:53.676Z,10.6
2022-10-12T02:32:00.011Z,10.8
2022-10-12T02:33:57.255Z,10.6
2022-10-12T02:35:59.059Z,10.5
2022-10-12T02:39:53.919Z,10.6
2022-10-12T02:45:53.679Z,10.7
2022-10-12T02:49:59.521Z,10.7
2022-10-12T02:51:53.685Z,10.6
2022-10-12T02:53:58.197Z,10.6
2022-10-12T02:57:57.221Z,10.7
2022-10-12T02:59:57.417Z,10.7
2022-10-12T03:03:57.734Z,10.7
2022-10-12T03:05:57.649Z,10.7
2022-10-12T03:09:56.772Z,10.7
2022-10-12T03:11:57.221Z,10.7
2022-10-12T03:13:58.546Z,10.7
2022-10-12T03:15:54.000Z,10.7
2022-10-12T03:19:59.665Z,10.8
2022-10-12T03:21:56.065Z,10.8
2022-10-12T03:23:59.963Z,10.8
2022-10-12T03:27:53.827Z,10.7
2022-10-12T03:31:59.389Z,10.7
2022-10-12T03:33:54.953Z,10.7
2022-10-12T03:35:59.719Z,10.8
2022-10-12T03:39:54.552Z,10.7
2022-10-12T03:41:59.482Z,10.8
2022-10-12T03:44:00.298Z,10.8
2022-10-12T03:45:55.762Z,10.6
2022-10-12T03:48:03.846Z,10.6
2022-10-12T03:51:57.319Z,10.6
2022-10-12T03:53:59.951Z,10.7
2022-10-12T03:55:59.764Z,10.8
2022-10-12T03:57:57.249Z,10.7
2022-10-12T04:00:00.085Z,10.7
2022-10-12T04:03:53.710Z,10.7
2022-10-12T04:08:00.209Z,10.7
2022-10-12T04:09:56.803Z,10.7
2022-10-12T04:15:54.058Z,10.7
2022-10-12T04:17:57.224Z,10.7
2022-10-12T04:20:00.062Z,10.8
2022-10-12T04:21:56.050Z,10.8
2022-10-12T04:24:00.452Z,10.8
2022-10-12T04:25:59.537Z,10.9
2022-10-12T04:27:54.912Z,10.8
2022-10-12T04:29:59.827Z,10.8
2022-10-12T04:33:57.279Z,10.8
2022-10-12T04:39:53.746Z,10.8
2022-10-12T04:45:57.250Z,11
2022-10-12T04:47:58.535Z,10.8
2022-10-12T04:51:53.653Z,10.8
2022-10-12T04:53:59.697Z,10.8
2022-10-12T04:55:59.855Z,10.8
2022-10-12T04:57:54.954Z,10.8
2022-10-12T05:00:00.326Z,10.8
2022-10-12T05:03:57.273Z,10.8
2022-10-12T05:09:57.289Z,10.8
2022-10-12T05:15:53.703Z,10.8
2022-10-12T05:17:58.617Z,10.8
2022-10-12T05:20:00.595Z,10.7
2022-10-12T05:21:58.868Z,10.7
2022-10-12T05:23:59.962Z,10.9
2022-10-12T05:25:55.650Z,10.8
2022-10-12T05:27:57.473Z,10.8
2022-10-12T05:31:59.593Z,10.7
2022-10-12T05:33:53.691Z,10.7
2022-10-12T05:35:57.332Z,10.7
2022-10-12T05:39:53.758Z,10.8
2022-10-12T05:41:59.402Z,10.7
2022-10-12T05:44:00.031Z,10.6
2022-10-12T05:45:53.711Z,10.6
2022-10-12T05:52:00.527Z,10.8
2022-10-12T05:57:56.158Z,10.7
2022-10-12T06:01:59.066Z,10.7
2022-10-12T06:03:57.902Z,10.6
2022-10-12T06:05:59.934Z,10.6
2022-10-12T06:09:55.777Z,10.7
2022-10-12T06:11:59.666Z,10.7
2022-10-12T06:13:55.615Z,10.7
2022-10-12T06:15:57.415Z,10.7
2022-10-12T06:17:58.723Z,10.8
2022-10-12T06:19:59.678Z,10.9
2022-10-12T06:21:56.692Z,10.9
2022-10-12T06:24:00.029Z,10.8
2022-10-12T06:27:53.712Z,11
2022-10-12T06:32:00.839Z,10.9
2022-10-12T06:33:53.756Z,11
2022-10-12T06:35:56.990Z,11
2022-10-12T06:39:57.372Z,11.1
2022-10-12T06:46:00.468Z,11.1
2022-10-12T06:48:00.522Z,11.1
2022-10-12T06:51:57.019Z,11
2022-10-12T06:53:53.833Z,11.1
2022-10-12T06:56:00.336Z,11.1
2022-10-12T06:57:53.771Z,11.2
2022-10-12T06:59:59.771Z,11.2
2022-10-12T07:04:00.484Z,11.2
2022-10-12T07:09:54.839Z,11.2
2022-10-12T07:12:00.266Z,11.3
2022-10-12T07:13:59.765Z,11.4
2022-10-12T07:15:53.821Z,11.4
2022-10-12T07:21:58.410Z,11.5
2022-10-12T07:24:00.542Z,11.4
2022-10-12T07:27:59.535Z,11.6
2022-10-12T07:33:53.614Z,11.7
2022-10-12T07:36:13.674Z,11.6
2022-10-12T07:38:00.058Z,11.6
2022-10-12T07:39:56.883Z,11.6
2022-10-12T07:45:55.860Z,11.9
2022-10-12T07:51:58.866Z,11.7
2022-10-12T07:57:53.951Z,11.9
2022-10-12T08:01:57.384Z,12
2022-10-12T08:03:56.414Z,12
2022-10-12T08:09:53.731Z,12.1
2022-10-12T08:14:00.379Z,12.5
2022-10-12T08:15:57.379Z,12.6
2022-10-12T08:17:58.143Z,12.6
2022-10-12T08:21:55.047Z,12.6
2022-10-12T08:26:00.000Z,12.8
2022-10-12T08:27:55.744Z,12.7
2022-10-12T08:32:03.095Z,12.8
2022-10-12T08:36:25.231Z,12.8
2022-10-12T08:39:53.653Z,12.6
2022-10-12T08:44:22.456Z,12.7
2022-10-12T08:46:15.876Z,12.8
2022-10-12T08:51:10.572Z,12.8
2022-10-12T08:53:04.634Z,13
2022-10-12T08:55:06.194Z,13
2022-10-12T08:57:04.358Z,13
2022-10-12T08:59:07.090Z,12.8
2022-10-12T09:01:09.703Z,12.9
2022-10-12T09:03:05.384Z,13.1
2022-10-12T09:07:08.167Z,13.2
2022-10-12T09:09:04.106Z,13.2
2022-10-12T09:11:07.518Z,13.2
2022-10-12T09:13:07.147Z,13.2
2022-10-12T09:15:09.675Z,13.1
2022-10-12T09:17:07.705Z,13.1
2022-10-12T09:19:04.797Z,13.1
2022-10-12T09:21:06.738Z,13
2022-10-12T09:23:08.787Z,13.1
2022-10-12T09:25:06.306Z,13.1
2022-10-12T09:27:08.129Z,13.2
2022-10-12T09:29:07.602Z,13.1
2022-10-12T09:31:04.374Z,13.1
2022-10-12T09:33:07.222Z,13.3
2022-10-12T09:35:07.974Z,13.4
2022-10-12T09:37:08.476Z,13.4
2022-10-12T09:39:04.847Z,13.4
2022-10-12T09:41:07.600Z,13.4
2022-10-12T09:43:07.708Z,13.4
2022-10-12T09:45:07.072Z,13.4
2022-10-12T09:47:08.122Z,13.7
2022-10-12T09:49:08.015Z,14
2022-10-12T09:51:08.801Z,14.1
2022-10-12T09:53:08.087Z,14.3
2022-10-12T09:55:09.065Z,14.4
2022-10-12T09:57:06.648Z,14.3
2022-10-12T09:59:07.919Z,14.3
2022-10-12T10:01:04.126Z,14.3
2022-10-12T10:03:09.350Z,14.3
2022-10-12T10:05:06.668Z,14.3
2022-10-12T10:07:06.740Z,14.3
2022-10-12T10:09:07.681Z,14.2
2022-10-12T10:11:06.321Z,14.4
2022-10-12T10:13:07.497Z,14.4
2022-10-12T10:15:09.721Z,14.7
2022-10-12T10:17:05.880Z,14.8
2022-10-12T10:19:08.966Z,14.8
2022-10-12T10:21:07.819Z,14.7
2022-10-12T10:23:07.108Z,14.6
2022-10-12T10:25:06.256Z,14.7
2022-10-12T10:27:06.248Z,14.8
2022-10-12T10:29:07.204Z,14.7
2022-10-12T10:31:06.375Z,14.9
2022-10-12T10:33:08.982Z,14.7
2022-10-12T10:35:07.226Z,14.7
2022-10-12T10:37:07.586Z,14.7
2022-10-12T10:39:05.928Z,14.7
2022-10-12T10:41:04.663Z,14.9
2022-10-12T10:43:04.920Z,14.9
2022-10-12T10:45:06.710Z,15
2022-10-12T10:47:06.137Z,15
2022-10-12T10:49:06.275Z,14.7
2022-10-12T10:51:04.928Z,14.9
2022-10-12T10:53:08.908Z,14.7
2022-10-12T10:55:05.613Z,14.8
2022-10-12T10:57:09.020Z,14.7
2022-10-12T10:59:09.665Z,14.6
2022-10-12T11:01:08.666Z,14.4
2022-10-12T11:03:06.794Z,14.4
2022-10-12T11:05:06.352Z,14.4
2022-10-12T11:07:07.814Z,14.4
2022-10-12T11:09:08.067Z,14.4
2022-10-12T11:11:07.958Z,14.1
2022-10-12T11:13:05.856Z,14.2
2022-10-12T11:15:06.668Z,14.2
2022-10-12T11:17:06.746Z,14.3
2022-10-12T11:19:06.297Z,14.4
2022-10-12T11:21:03.034Z,14.5
2022-10-12T11:23:06.276Z,14.5
2022-10-12T11:25:08.884Z,14.6
2022-10-12T11:27:06.284Z,14.5
2022-10-12T11:29:05.308Z,14.4
2022-10-12T11:31:07.687Z,14.4
2022-10-12T11:33:08.035Z,14.5
2022-10-12T11:35:09.001Z,14.4
2022-10-12T11:37:19.042Z,14.6
2022-10-12T11:39:07.248Z,14.7
2022-10-12T11:41:14.194Z,14.7
2022-10-12T11:43:03.165Z,14.7
2022-10-12T11:45:03.056Z,14.4
2022-10-12T11:47:09.981Z,14.3
2022-10-12T11:49:06.710Z,14.4
2022-10-12T11:51:04.363Z,14.3
2022-10-12T11:53:08.549Z,14.4
2022-10-12T11:55:08.987Z,14.3
2022-10-12T11:57:09.336Z,14.2
2022-10-12T11:59:05.502Z,14.2
2022-10-12T12:01:03.961Z,14.5
2022-10-12T12:03:06.845Z,14.6
2022-10-12T12:05:06.756Z,14.3
2022-10-12T12:07:06.652Z,14.6
2022-10-12T12:09:07.644Z,14.5
2022-10-12T12:11:06.783Z,14.4
2022-10-12T12:13:03.177Z,14.4
2022-10-12T12:15:08.368Z,14.5
2022-10-12T12:17:08.580Z,14.4
2022-10-12T12:19:03.154Z,14.5
2022-10-12T12:21:05.622Z,14.5
2022-10-12T12:23:03.045Z,14.4
2022-10-12T12:25:08.445Z,14.5
2022-10-12T12:27:06.668Z,14.6
2022-10-12T12:29:03.167Z,14.6
2022-10-12T12:31:07.540Z,14.6
2022-10-12T12:33:03.054Z,14.3
2022-10-12T12:35:03.055Z,14.4
2022-10-12T12:37:04.992Z,14.5
2022-10-12T12:39:06.664Z,14.5
2022-10-12T12:41:07.998Z,14.5
2022-10-12T12:43:08.280Z,14.6
2022-10-12T12:45:03.178Z,14.7
2022-10-12T12:47:11.923Z,14.6
2022-10-12T12:49:08.898Z,14.5
2022-10-12T12:51:04.894Z,14.5
2022-10-12T12:53:06.754Z,14.4
2022-10-12T12:55:07.543Z,14.4
2022-10-12T12:57:05.166Z,14.5
2022-10-12T12:59:03.041Z,14.3
2022-10-12T13:01:08.163Z,14.5
2022-10-12T13:03:09.039Z,14.4
2022-10-12T13:05:03.063Z,14.2
2022-10-12T13:07:04.489Z,14.5
2022-10-12T13:09:03.306Z,14.3
2022-10-12T13:11:06.437Z,14.3
2022-10-12T13:13:09.235Z,14.4
2022-10-12T13:15:03.048Z,14.4
2022-10-12T13:17:33.189Z,14.4
2022-10-12T13:19:06.297Z,14.5
2022-10-12T13:21:06.429Z,14.7
2022-10-12T13:23:05.648Z,14.8
2022-10-12T13:25:06.711Z,14.7
2022-10-12T13:27:07.657Z,14.5
2022-10-12T13:29:03.044Z,14.7
2022-10-12T13:31:03.108Z,14.9
2022-10-12T13:33:03.067Z,14.9
2022-10-12T13:35:06.681Z,14.9
2022-10-12T13:37:08.028Z,14.9
2022-10-12T13:39:03.308Z,14.7
2022-10-12T13:41:08.200Z,14.6
2022-10-12T13:43:07.155Z,14.5
2022-10-12T13:45:07.018Z,14.5
2022-10-12T13:47:06.688Z,14.6
2022-10-12T13:49:03.176Z,14.8
2022-10-12T13:51:03.327Z,14.9
2022-10-12T13:53:03.047Z,14.8
2022-10-12T13:55:03.050Z,14.6
2022-10-12T13:57:06.774Z,14.6
2022-10-12T13:59:06.948Z,14.6
2022-10-12T14:01:08.875Z,14.6
2022-10-12T14:03:03.158Z,14.7
2022-10-12T14:05:03.206Z,14.5
2022-10-12T14:07:05.535Z,14.5
2022-10-12T14:11:06.802Z,14.5
2022-10-12T14:13:09.001Z,14.6
2022-10-12T14:15:03.178Z,14.6
2022-10-12T14:17:06.045Z,14.4
2022-10-12T14:19:09.946Z,14.6
2022-10-12T14:23:08.411Z,14.7
2022-10-12T14:25:03.099Z,14.5
2022-10-12T14:27:07.058Z,14.5
2022-10-12T14:29:09.416Z,14.7
2022-10-12T14:31:09.917Z,14.7
2022-10-12T14:33:09.165Z,14.6
2022-10-12T14:35:06.643Z,14.6
2022-10-12T14:37:06.745Z,14.4
2022-10-12T14:41:06.612Z,14.4
2022-10-12T14:43:03.062Z,14.4
2022-10-12T14:45:07.182Z,14.5
2022-10-12T14:47:07.075Z,14.3
2022-10-12T14:49:03.130Z,14.5
2022-10-12T14:51:05.407Z,14.4
2022-10-12T14:53:07.110Z,14.4
2022-10-12T14:55:05.331Z,14.3
2022-10-12T14:57:07.444Z,14.5
2022-10-12T14:59:08.087Z,14.3
2022-10-12T15:01:07.203Z,14.3
2022-10-12T15:03:03.128Z,14.1
2022-10-12T15:05:03.243Z,14.2
2022-10-12T15:07:03.225Z,14.2
2022-10-12T15:09:05.059Z,14.3
2022-10-12T15:11:06.361Z,14.3
2022-10-12T15:13:06.351Z,14.1
2022-10-12T15:15:08.113Z,14
2022-10-12T15:19:16.320Z,14
2022-10-12T15:21:13.036Z,14.1
2022-10-12T15:23:16.491Z,14.1
2022-10-12T15:25:13.985Z,14
2022-10-12T15:27:13.050Z,13.9
2022-10-12T15:29:17.648Z,13.7
2022-10-12T15:31:18.140Z,13.9
2022-10-12T15:33:16.554Z,13.8
2022-10-12T15:35:15.468Z,13.7
2022-10-12T15:37:13.267Z,13.7
2022-10-12T15:39:11.837Z,13.7
2022-10-12T15:41:18.614Z,13.7
2022-10-12T15:45:14.206Z,13.6
2022-10-12T15:47:14.158Z,13.5
2022-10-12T15:49:18.820Z,13.5
2022-10-12T15:51:18.599Z,13.4
2022-10-12T15:53:11.689Z,13.3
2022-10-12T15:55:17.996Z,13.4
2022-10-12T15:57:15.659Z,13.4
2022-10-12T15:59:16.284Z,13.2
2022-10-12T16:01:17.615Z,13.3
2022-10-12T16:03:15.631Z,13.3
2022-10-12T16:05:14.488Z,13.2
2022-10-12T16:07:15.181Z,13.1
2022-10-12T16:09:15.454Z,13.1
2022-10-12T16:11:15.682Z,13.1
2022-10-12T16:13:16.319Z,13.1
2022-10-12T16:15:17.046Z,13
2022-10-12T16:17:11.985Z,13
2022-10-12T16:19:11.824Z,12.9
2022-10-12T16:21:15.521Z,13
2022-10-12T16:23:11.854Z,12.9
2022-10-12T16:25:11.820Z,12.9
2022-10-12T16:27:12.197Z,12.9
2022-10-12T16:29:12.045Z,12.9
2022-10-12T16:31:17.674Z,12.8
2022-10-12T16:33:11.838Z,12.8
2022-10-12T16:35:11.817Z,12.8
2022-10-12T16:37:13.224Z,12.7
2022-10-12T16:39:17.889Z,12.7
2022-10-12T16:41:15.435Z,12.7
2022-10-12T16:43:11.822Z,12.6
2022-10-12T16:45:15.411Z,12.6
2022-10-12T16:47:18.422Z,12.6
2022-10-12T16:49:15.853Z,12.5
2022-10-12T16:51:17.147Z,12.5
2022-10-12T16:53:18.164Z,12.4
2022-10-12T16:55:11.833Z,12.3
2022-10-12T16:57:11.699Z,12.2
2022-10-12T16:59:17.952Z,12.1
2022-10-12T17:01:15.682Z,12
2022-10-12T17:03:13.614Z,12
2022-10-12T17:05:17.750Z,12
2022-10-12T17:07:16.251Z,11.9
2022-10-12T17:09:15.507Z,11.8
2022-10-12T17:11:18.522Z,11.9
2022-10-12T17:13:18.567Z,11.7
2022-10-12T17:15:13.403Z,11.7
2022-10-12T17:17:13.631Z,11.7
2022-10-12T17:19:16.347Z,11.7
2022-10-12T17:21:13.495Z,11.7
2022-10-12T17:23:16.684Z,11.6
2022-10-12T17:25:16.151Z,11.6
2022-10-12T17:27:14.849Z,11.6
2022-10-12T17:29:13.636Z,11.6
2022-10-12T17:31:15.390Z,11.6
2022-10-12T17:33:15.389Z,11.7
2022-10-12T17:35:18.935Z,11.6
2022-10-12T17:37:11.871Z,11.7
2022-10-12T17:39:13.687Z,11.8
2022-10-12T17:41:11.840Z,11.7
2022-10-12T17:43:17.055Z,11.8
2022-10-12T17:45:14.918Z,11.8
2022-10-12T17:47:11.705Z,11.8
2022-10-12T17:49:11.724Z,11.8
2022-10-12T17:51:11.743Z,11.8
2022-10-12T17:53:15.383Z,11.8
2022-10-12T17:55:29.842Z,11.8
2022-10-12T17:57:15.662Z,11.7
2022-10-12T17:59:17.178Z,11.7
2022-10-12T18:01:15.617Z,11.7
2022-10-12T18:03:20.085Z,11.8
2022-10-12T18:05:13.108Z,11.8
2022-10-12T18:07:11.820Z,11.7
2022-10-12T18:09:15.011Z,11.8
2022-10-12T18:11:15.732Z,11.7
2022-10-12T18:13:14.950Z,11.7
2022-10-12T18:15:16.754Z,11.7
2022-10-12T18:17:15.920Z,11.7
2022-10-12T18:19:15.709Z,11.7
2022-10-12T18:21:16.615Z,11.6
2022-10-12T18:23:13.614Z,11.6
2022-10-12T18:25:15.601Z,11.7
2022-10-12T18:27:13.066Z,11.7
2022-10-12T18:29:17.261Z,11.7
2022-10-12T18:31:13.940Z,11.7
2022-10-12T18:33:17.037Z,11.7
2022-10-12T18:35:17.269Z,11.7
2022-10-12T18:37:11.716Z,11.7
2022-10-12T18:39:17.726Z,11.7
2022-10-12T18:41:14.427Z,11.6
2022-10-12T18:43:14.892Z,11.6
2022-10-12T18:45:17.247Z,11.6
2022-10-12T18:47:15.706Z,11.6
2022-10-12T18:49:15.385Z,11.5
2022-10-12T18:51:11.852Z,11.5
2022-10-12T18:53:16.620Z,11.4
2022-10-12T18:55:15.392Z,11.4
2022-10-12T18:57:15.012Z,11.4
2022-10-12T18:59:15.538Z,11.3
2022-10-12T19:01:15.314Z,11.2
2022-10-12T19:03:14.881Z,11.2
2022-10-12T19:05:18.564Z,11.1
2022-10-12T19:07:17.238Z,11.2
2022-10-12T19:09:15.428Z,11.2
2022-10-12T19:11:16.636Z,11.2
2022-10-12T19:13:11.875Z,11.3
2022-10-12T19:15:11.874Z,11.3
2022-10-12T19:17:20.614Z,11.4
2022-10-12T19:19:21.028Z,11.4
2022-10-12T19:21:11.741Z,11.3
2022-10-12T19:23:11.792Z,11.3
2022-10-12T19:25:21.867Z,11.4
2022-10-12T19:27:15.048Z,11.3
2022-10-12T19:29:15.070Z,11.3
2022-10-12T19:31:17.742Z,11.3
2022-10-12T19:33:15.291Z,11.2
2022-10-12T19:35:14.067Z,11.1
2022-10-12T19:37:16.582Z,11.1
2022-10-12T19:39:14.512Z,11
2022-10-12T19:41:17.869Z,11
2022-10-12T19:43:11.868Z,10.9
2022-10-12T19:45:17.602Z,11
2022-10-12T19:47:15.069Z,11
2022-10-12T19:49:15.417Z,10.9
2022-10-12T19:51:12.889Z,10.9
2022-10-12T19:53:15.604Z,10.9
2022-10-12T19:55:16.630Z,10.9
2022-10-12T19:57:15.278Z,10.8
2022-10-12T19:59:16.572Z,10.8
2022-10-12T20:01:17.262Z,10.7
2022-10-12T20:03:11.882Z,10.6
2022-10-12T20:05:17.585Z,10.7
2022-10-12T20:07:15.648Z,10.6
2022-10-12T20:09:17.263Z,10.5
2022-10-12T20:11:17.935Z,10.5
2022-10-12T20:13:15.011Z,10.4
2022-10-12T20:15:18.366Z,10.5
2022-10-12T20:17:18.437Z,10.4
2022-10-12T20:19:15.772Z,10.4
2022-10-12T20:21:12.317Z,10.3
2022-10-12T20:23:17.672Z,10.4
2022-10-12T20:25:12.185Z,10.3
2022-10-12T20:27:15.683Z,10.3
2022-10-12T20:29:17.137Z,10.2
2022-10-12T20:31:15.531Z,10.2
2022-10-12T20:33:15.608Z,10
2022-10-12T20:35:17.242Z,9.8
2022-10-12T20:37:18.872Z,9.7
2022-10-12T20:39:17.637Z,9.6
2022-10-12T20:41:16.485Z,9.6
2022-10-12T20:43:11.757Z,9.7
2022-10-12T20:45:15.068Z,9.6
2022-10-12T20:47:13.937Z,9.5
2022-10-12T20:49:15.014Z,9.6
2022-10-12T20:51:17.527Z,9.6
2022-10-12T20:53:15.736Z,9.5
2022-10-12T20:55:22.249Z,9.4
2022-10-12T20:57:16.166Z,9.4
2022-10-12T20:59:18.007Z,9.3
2022-10-12T21:03:11.883Z,9.3
2022-10-12T21:05:14.290Z,9.2
2022-10-12T21:07:17.727Z,9.2
2022-10-12T21:09:17.862Z,9.2
2022-10-12T21:11:11.894Z,9.2
2022-10-12T21:13:11.918Z,9.1
2022-10-12T21:15:18.684Z,9.2
2022-10-12T21:17:16.384Z,9.4
2022-10-12T21:19:16.510Z,9.4
2022-10-12T21:21:12.193Z,9.6
2022-10-12T21:23:19.116Z,9.5
2022-10-12T21:25:15.041Z,9.5
2022-10-12T21:27:13.070Z,9.6
2022-10-12T21:29:11.888Z,9.6
2022-10-12T21:31:11.783Z,9.6
2022-10-12T21:33:15.106Z,9.5
2022-10-12T21:35:13.692Z,9.1
2022-10-12T21:37:17.727Z,9
2022-10-12T21:39:16.439Z,9
2022-10-12T21:41:11.888Z,8.8
2022-10-12T21:43:11.896Z,9
2022-10-12T21:45:13.650Z,9.1
2022-10-12T21:47:18.635Z,9.3
2022-10-12T21:49:18.035Z,9.4
2022-10-12T21:51:14.989Z,9.5
2022-10-12T21:53:12.119Z,9.4
2022-10-12T21:55:15.045Z,9.5
2022-10-12T21:57:11.902Z,9.5
2022-10-12T21:59:17.237Z,9.5
2022-10-12T22:01:11.954Z,9.4
2022-10-12T22:03:14.213Z,9.2
2022-10-12T22:05:12.747Z,9
2022-10-12T22:07:15.903Z,9
2022-10-12T22:09:11.950Z,8.8
2022-10-12T22:11:15.514Z,8.7
2022-10-12T22:13:12.227Z,8.6
2022-10-12T22:15:15.798Z,8.6
2022-10-12T22:19:15.431Z,8.8
2022-10-12T22:21:15.450Z,9.3
2022-10-12T22:23:18.041Z,9.4
2022-10-12T22:25:15.745Z,9.3
2022-10-12T22:27:16.272Z,9.4
2022-10-12T22:29:17.723Z,9.5
2022-10-12T22:31:14.661Z,9.3
2022-10-12T22:33:11.843Z,9.5
2022-10-12T22:35:11.935Z,9.5
2022-10-12T22:37:15.384Z,9.5
2022-10-12T22:39:15.497Z,9.4
2022-10-12T22:41:16.268Z,9.4
2022-10-12T22:43:15.493Z,9.3
2022-10-12T22:45:12.084Z,9.3
2022-10-12T22:47:16.316Z,9.4
2022-10-12T22:49:11.922Z,9.3
2022-10-12T22:51:11.914Z,9.3
2022-10-12T22:53:16.808Z,9.1
2022-10-12T22:55:13.316Z,9.1
2022-10-12T22:57:15.517Z,9.3
2022-10-12T22:59:17.253Z,9.3
2022-10-12T23:01:14.071Z,9.3
2022-10-12T23:03:14.882Z,9.3
2022-10-12T23:05:18.522Z,9.3
2022-10-12T23:07:11.919Z,9.3
2022-10-12T23:09:15.515Z,9.2
2022-10-12T23:11:11.916Z,9.2
2022-10-12T23:13:18.898Z,9.2
2022-10-12T23:15:14.925Z,9.2
2022-10-12T23:17:14.867Z,9.2
2022-10-12T23:19:15.350Z,9.2
2022-10-12T23:21:15.410Z,9.1
2022-10-12T23:23:15.438Z,9.2
2022-10-12T23:25:15.639Z,9.2
2022-10-12T23:27:14.178Z,9.1
2022-10-12T23:29:11.821Z,9.1
2022-10-12T23:31:11.931Z,9.2
2022-10-12T23:33:15.495Z,9.1
2022-10-12T23:35:18.417Z,9
2022-10-12T23:39:18.718Z,9.1
2022-10-12T23:41:15.512Z,9.1
2022-10-12T23:43:13.540Z,9.1
2022-10-12T23:45:16.369Z,9
2022-10-12T23:47:13.738Z,9.1
2022-10-12T23:49:17.726Z,9.1
2022-10-12T23:51:11.951Z,9.1
2022-10-12T23:53:11.859Z,9.1
2022-10-12T23:55:17.685Z,9.1
2022-10-12T23:57:34.613Z,9.1
2022-10-12T23:59:11.933Z,9.2
